Time,TemperatureF,DewpointF,PressureIn,WindDirection,WindDirectionDegrees,WindSpeedMPH,WindSpeedGustMPH,Humidity,HourlyPrecipIn,Conditions,Clouds,dailyrainin,SoftwareType,DateUTC
2013-01-24 00:00:00,19.3,17.6,28.17,NE,45,1.0,6.0,93,0.00,,,0.00,Weather View 32 v70,2013-01-24 05:00:00,
2013-01-24 00:02:00,19.4,17.7,28.17,NE,45,2.0,6.0,93,0.00,,,0.00,Weather View 32 v70,2013-01-24 05:02:00,
2013-01-24 00:03:00,19.3,17.6,28.17,NE,45,1.0,6.0,93,0.00,,,0.00,Weather View 32 v70,2013-01-24 05:03:00,
2013-01-24 00:08:00,19.3,17.6,28.17,ENE,67,1.0,6.0,93,0.00,,,0.00,Weather View 32 v70,2013-01-24 05:08:00,
2013-01-24 00:13:00,19.3,17.6,28.16,East,90,2.0,6.0,93,0.00,,,0.00,Weather View 32 v70,2013-01-24 05:13:00,
2013-01-24 00:18:00,19.2,17.5,28.16,East,90,2.0,4.0,93,0.00,,,0.00,Weather View 32 v70,2013-01-24 05:18:00,
2013-01-24 00:23:00,19.2,17.5,28.16,East,90,0.0,4.0,93,0.00,,,0.00,Weather View 32 v70,2013-01-24 05:23:00,
2013-01-24 00:28:00,19.1,17.4,28.15,East,90,2.0,4.0,93,0.00,,,0.00,Weather View 32 v70,2013-01-24 05:28:00,
2013-01-24 00:33:00,19.1,17.4,28.15,East,90,2.0,4.0,93,0.00,,,0.00,Weather View 32 v70,2013-01-24 05:33:00,
2013-01-24 00:38:00,19.0,17.3,28.15,East,90,0.0,4.0,93,0.00,,,0.00,Weather View 32 v70,2013-01-24 05:38:00,
2013-01-24 00:43:00,19.0,17.3,28.14,NE,45,2.0,4.0,93,0.00,,,0.00,Weather View 32 v70,2013-01-24 05:43:00,
2013-01-24 00:48:00,19.0,17.3,28.14,NE,45,0.0,4.0,93,0.00,,,0.00,Weather View 32 v70,2013-01-24 05:48:00,
2013-01-24 00:53:00,19.0,17.3,28.14,NE,45,1.0,4.0,93,0.00,,,0.00,Weather View 32 v70,2013-01-24 05:53:00,
2013-01-24 00:58:00,18.9,17.2,28.14,NNE,22,0.0,4.0,93,0.00,,,0.00,Weather View 32 v70,2013-01-24 05:58:00,
2013-01-24 01:03:00,18.9,17.2,28.14,ENE,67,1.0,3.0,93,0.00,,,0.00,Weather View 32 v70,2013-01-24 06:03:00,
2013-01-24 01:08:00,18.9,17.2,28.14,East,90,1.0,3.0,93,0.00,,,0.00,Weather View 32 v70,2013-01-24 06:08:00,
2013-01-24 01:13:00,18.9,17.2,28.14,East,90,1.0,3.0,93,0.00,,,0.00,Weather View 32 v70,2013-01-24 06:13:00,
2013-01-24 01:18:00,18.8,17.1,28.14,East,90,0.0,3.0,93,0.00,,,0.00,Weather View 32 v70,2013-01-24 06:18:00,
2013-01-24 01:23:00,18.7,17.0,28.14,ESE,112,0.0,3.0,93,0.00,,,0.00,Weather View 32 v70,2013-01-24 06:23:00,
2013-01-24 01:28:00,18.7,17.0,28.13,East,90,1.0,3.0,93,0.00,,,0.00,Weather View 32 v70,2013-01-24 06:28:00,
2013-01-24 01:33:00,18.6,16.9,28.13,East,90,0.0,3.0,93,0.00,,,0.00,Weather View 32 v70,2013-01-24 06:33:00,
2013-01-24 01:38:00,18.6,16.9,28.13,NE,45,2.0,3.0,93,0.00,,,0.00,Weather View 32 v70,2013-01-24 06:38:00,
2013-01-24 01:43:00,18.6,16.9,28.13,ENE,67,1.0,3.0,93,0.00,,,0.00,Weather View 32 v70,2013-01-24 06:43:00,
2013-01-24 01:48:00,18.6,16.9,28.13,NE,45,2.0,3.0,93,0.00,,,0.00,Weather View 32 v70,2013-01-24 06:48:00,
2013-01-24 01:53:00,18.6,16.9,28.13,NE,45,1.0,3.0,93,0.00,,,0.00,Weather View 32 v70,2013-01-24 06:53:00,
2013-01-24 01:58:00,18.6,16.9,28.13,ENE,67,2.0,3.0,93,0.00,,,0.00,Weather View 32 v70,2013-01-24 06:58:00,
2013-01-24 02:03:00,18.5,16.8,28.13,NE,45,2.0,3.0,93,0.00,,,0.00,Weather View 32 v70,2013-01-24 07:03:00,
2013-01-24 02:08:00,18.5,16.8,28.13,NE,45,1.0,3.0,93,0.00,,,0.00,Weather View 32 v70,2013-01-24 07:08:00,
2013-01-24 02:13:00,18.5,16.8,28.13,East,90,1.0,3.0,93,0.00,,,0.00,Weather View 32 v70,2013-01-24 07:13:00,
2013-01-24 02:18:00,18.5,16.8,28.13,NE,45,1.0,3.0,93,0.00,,,0.00,Weather View 32 v70,2013-01-24 07:18:00,
2013-01-24 02:23:00,18.6,16.9,28.13,NE,45,2.0,4.0,93,0.00,,,0.00,Weather View 32 v70,2013-01-24 07:23:00,
2013-01-24 02:28:00,18.6,16.9,28.13,NE,45,1.0,4.0,93,0.00,,,0.00,Weather View 32 v70,2013-01-24 07:28:00,
2013-01-24 02:33:00,18.6,16.9,28.13,East,90,1.0,4.0,93,0.00,,,0.00,Weather View 32 v70,2013-01-24 07:33:00,
2013-01-24 02:38:00,18.5,16.8,28.13,East,90,0.0,4.0,93,0.00,,,0.00,Weather View 32 v70,2013-01-24 07:38:00,
2013-01-24 02:43:00,18.4,16.7,28.13,East,90,1.0,4.0,93,0.00,,,0.00,Weather View 32 v70,2013-01-24 07:43:00,
2013-01-24 02:48:00,18.3,16.6,28.13,East,90,1.0,4.0,93,0.00,,,0.00,Weather View 32 v70,2013-01-24 07:48:00,
2013-01-24 02:53:00,18.2,16.5,28.14,East,90,2.0,4.0,93,0.00,,,0.00,Weather View 32 v70,2013-01-24 07:53:00,
2013-01-24 02:58:00,18.0,16.3,28.13,East,90,0.0,4.0,93,0.00,,,0.00,Weather View 32 v70,2013-01-24 07:58:00,
2013-01-24 03:03:00,17.9,16.2,28.14,East,90,0.0,4.0,93,0.00,,,0.00,Weather View 32 v70,2013-01-24 08:03:00,
2013-01-24 03:08:00,17.8,16.1,28.14,ENE,67,2.0,4.0,93,0.00,,,0.00,Weather View 32 v70,2013-01-24 08:08:00,
2013-01-24 03:13:00,17.7,16.0,28.14,NE,45,1.0,4.0,93,0.00,,,0.00,Weather View 32 v70,2013-01-24 08:13:00,
2013-01-24 03:18:00,17.5,15.8,28.14,East,90,1.0,4.0,93,0.00,,,0.00,Weather View 32 v70,2013-01-24 08:18:00,
2013-01-24 03:23:00,17.3,15.6,28.14,East,90,2.0,3.0,93,0.00,,,0.00,Weather View 32 v70,2013-01-24 08:23:00,
2013-01-24 03:28:00,17.1,15.4,28.14,ESE,112,0.0,3.0,93,0.00,,,0.00,Weather View 32 v70,2013-01-24 08:28:00,
2013-01-24 03:33:00,16.9,15.2,28.14,ESE,112,1.0,4.0,93,0.00,,,0.00,Weather View 32 v70,2013-01-24 08:33:00,
2013-01-24 03:38:00,16.8,15.1,28.15,ESE,112,2.0,4.0,93,0.00,,,0.00,Weather View 32 v70,2013-01-24 08:38:00,
2013-01-24 03:43:00,16.6,14.9,28.14,East,90,2.0,4.0,93,0.00,,,0.00,Weather View 32 v70,2013-01-24 08:43:00,
2013-01-24 03:48:00,16.5,14.8,28.15,ESE,112,2.0,4.0,93,0.00,,,0.00,Weather View 32 v70,2013-01-24 08:48:00,
2013-01-24 03:53:00,16.4,14.7,28.14,ESE,112,2.0,5.0,93,0.00,,,0.00,Weather View 32 v70,2013-01-24 08:53:00,
2013-01-24 03:58:00,16.2,14.5,28.15,ENE,67,2.0,5.0,93,0.00,,,0.00,Weather View 32 v70,2013-01-24 08:58:00,
2013-01-24 04:03:00,15.9,14.2,28.15,East,90,2.0,5.0,93,0.00,,,0.00,Weather View 32 v70,2013-01-24 09:03:00,
2013-01-24 04:08:00,15.7,14.0,28.15,NE,45,2.0,5.0,93,0.00,,,0.00,Weather View 32 v70,2013-01-24 09:08:00,
2013-01-24 04:14:00,15.3,13.6,28.16,East,90,2.0,5.0,93,0.00,,,0.00,Weather View 32 v70,2013-01-24 09:14:00,
2013-01-24 04:19:00,14.9,13.2,28.15,East,90,0.0,5.0,93,0.00,,,0.00,Weather View 32 v70,2013-01-24 09:19:00,
2013-01-24 04:24:00,14.5,12.8,28.15,East,90,2.0,5.0,93,0.00,,,0.00,Weather View 32 v70,2013-01-24 09:24:00,
2013-01-24 04:29:00,14.3,12.6,28.16,East,90,1.0,5.0,93,0.00,,,0.00,Weather View 32 v70,2013-01-24 09:29:00,
2013-01-24 04:34:00,14.1,12.5,28.16,ENE,67,1.0,5.0,93,0.00,,,0.00,Weather View 32 v70,2013-01-24 09:34:00,
2013-01-24 04:39:00,13.8,12.2,28.16,East,90,0.0,5.0,93,0.00,,,0.00,Weather View 32 v70,2013-01-24 09:39:00,
2013-01-24 04:44:00,13.5,11.9,28.17,East,90,0.0,5.0,93,0.00,,,0.00,Weather View 32 v70,2013-01-24 09:44:00,
2013-01-24 04:49:00,13.2,11.6,28.17,East,90,0.0,5.0,93,0.00,,,0.00,Weather View 32 v70,2013-01-24 09:49:00,
2013-01-24 04:54:00,13.1,11.5,28.17,East,90,1.0,4.0,93,0.00,,,0.00,Weather View 32 v70,2013-01-24 09:54:00,
2013-01-24 04:59:00,12.9,11.3,28.17,East,90,0.0,4.0,93,0.00,,,0.00,Weather View 32 v70,2013-01-24 09:59:00,
2013-01-24 05:04:00,12.8,11.2,28.18,NE,45,3.0,4.0,93,0.00,,,0.00,Weather View 32 v70,2013-01-24 10:04:00,
2013-01-24 05:09:00,12.7,11.1,28.18,NE,45,0.0,4.0,93,0.00,,,0.00,Weather View 32 v70,2013-01-24 10:09:00,
2013-01-24 05:14:00,12.9,11.3,28.18,NE,45,2.0,4.0,93,0.00,,,0.00,Weather View 32 v70,2013-01-24 10:14:00,
2013-01-24 05:19:00,12.8,11.2,28.18,NE,45,1.0,4.0,93,0.00,,,0.00,Weather View 32 v70,2013-01-24 10:19:00,
2013-01-24 05:24:00,12.7,11.1,28.19,NE,45,0.0,4.0,93,0.00,,,0.00,Weather View 32 v70,2013-01-24 10:24:00,
2013-01-24 05:29:00,12.5,10.9,28.19,NE,45,2.0,4.0,93,0.00,,,0.00,Weather View 32 v70,2013-01-24 10:29:00,
2013-01-24 05:34:00,12.5,10.9,28.19,NE,45,1.0,4.0,93,0.00,,,0.00,Weather View 32 v70,2013-01-24 10:34:00,
2013-01-24 05:39:00,12.4,10.8,28.20,WNW,292,0.0,4.0,93,0.00,,,0.00,Weather View 32 v70,2013-01-24 10:39:00,
2013-01-24 05:44:00,12.5,10.9,28.20,ESE,112,2.0,4.0,93,0.00,,,0.00,Weather View 32 v70,2013-01-24 10:44:00,
2013-01-24 05:49:00,12.9,11.3,28.20,NE,45,1.0,4.0,93,0.00,,,0.00,Weather View 32 v70,2013-01-24 10:49:00,
2013-01-24 05:54:00,12.8,11.2,28.21,NNW,337,2.0,4.0,93,0.00,,,0.00,Weather View 32 v70,2013-01-24 10:54:00,
2013-01-24 05:59:00,12.8,11.2,28.21,NE,45,1.0,4.0,93,0.00,,,0.00,Weather View 32 v70,2013-01-24 10:59:00,
2013-01-24 06:04:00,13.1,11.5,28.21,NE,45,2.0,4.0,93,0.00,,,0.00,Weather View 32 v70,2013-01-24 11:04:00,
2013-01-24 06:09:00,13.5,11.9,28.21,WNW,292,14.0,14.0,93,0.00,,,0.00,Weather View 32 v70,2013-01-24 11:09:00,
2013-01-24 06:14:00,15.8,13.6,28.22,North,360,7.0,15.0,91,0.00,,,0.00,Weather View 32 v70,2013-01-24 11:14:00,
2013-01-24 06:19:00,17.1,13.6,28.22,NNE,22,6.0,19.0,86,0.00,,,0.00,Weather View 32 v70,2013-01-24 11:19:00,
2013-01-24 06:24:00,17.7,14.2,28.22,North,360,9.0,19.0,86,0.00,,,0.00,Weather View 32 v70,2013-01-24 11:24:00,
2013-01-24 06:29:00,18.2,15.5,28.22,North,360,11.0,19.0,89,0.00,,,0.00,Weather View 32 v70,2013-01-24 11:29:00,
2013-01-24 06:34:00,18.1,16.4,28.23,North,360,10.0,19.0,93,0.00,,,0.00,Weather View 32 v70,2013-01-24 11:34:00,
2013-01-24 06:39:00,18.0,16.3,28.24,North,360,11.0,19.0,93,0.00,,,0.00,Weather View 32 v70,2013-01-24 11:39:00,
2013-01-24 06:44:00,18.1,16.4,28.24,NNW,337,7.0,19.0,93,0.00,,,0.00,Weather View 32 v70,2013-01-24 11:44:00,
2013-01-24 06:49:00,18.1,16.4,28.25,WNW,292,7.0,19.0,93,0.00,,,0.00,Weather View 32 v70,2013-01-24 11:49:00,
2013-01-24 06:54:00,17.9,15.5,28.25,NW,315,18.0,19.0,90,0.00,,,0.00,Weather View 32 v70,2013-01-24 11:54:00,
2013-01-24 06:59:00,18.2,13.6,28.25,NW,315,8.0,21.0,82,0.00,,,0.00,Weather View 32 v70,2013-01-24 11:59:00,
2013-01-24 07:04:00,18.3,12.0,28.26,NNW,337,14.0,21.0,76,0.00,,,0.00,Weather View 32 v70,2013-01-24 12:04:00,
2013-01-24 07:10:00,18.4,11.2,28.26,North,360,13.0,21.0,73,0.00,,,0.00,Weather View 32 v70,2013-01-24 12:10:00,
2013-01-24 07:15:00,18.4,10.6,28.26,North,360,9.0,21.0,71,0.00,,,0.00,Weather View 32 v70,2013-01-24 12:15:00,
2013-01-24 07:20:00,18.4,9.6,28.27,NW,315,12.0,21.0,68,0.00,,,0.00,Weather View 32 v70,2013-01-24 12:20:00,
2013-01-24 07:25:00,18.5,9.7,28.27,North,360,11.0,21.0,68,0.00,,,0.00,Weather View 32 v70,2013-01-24 12:25:00,
2013-01-24 07:30:00,18.3,9.2,28.28,NW,315,9.0,21.0,67,0.00,,,0.00,Weather View 32 v70,2013-01-24 12:30:00,
2013-01-24 07:35:00,18.0,10.5,28.28,NW,315,16.0,21.0,72,0.00,,,0.00,Weather View 32 v70,2013-01-24 12:35:00,
2013-01-24 07:40:00,17.9,10.4,28.28,NW,315,11.0,22.0,72,0.00,,,0.00,Weather View 32 v70,2013-01-24 12:40:00,
2013-01-24 07:45:00,17.7,10.8,28.29,NW,315,9.0,22.0,74,0.00,,,0.00,Weather View 32 v70,2013-01-24 12:45:00,
2013-01-24 07:50:00,17.6,11.6,28.30,NNW,337,12.0,22.0,77,0.00,,,0.00,Weather View 32 v70,2013-01-24 12:50:00,
2013-01-24 07:55:00,17.4,12.3,28.30,North,360,14.0,22.0,80,0.00,,,0.00,Weather View 32 v70,2013-01-24 12:55:00,
2013-01-24 08:00:00,17.3,11.9,28.30,NW,315,9.0,22.0,79,0.00,,,0.00,Weather View 32 v70,2013-01-24 13:00:00,
2013-01-24 08:05:00,17.2,10.9,28.31,NW,315,16.0,22.0,76,0.00,,,0.00,Weather View 32 v70,2013-01-24 13:05:00,
2013-01-24 08:10:00,17.6,7.5,28.31,NNW,337,12.0,22.0,64,0.00,,,0.00,Weather View 32 v70,2013-01-24 13:10:00,
2013-01-24 08:15:00,17.7,7.2,28.32,NNW,337,10.0,22.0,63,0.00,,,0.00,Weather View 32 v70,2013-01-24 13:15:00,
2013-01-24 08:20:00,17.8,6.6,28.32,North,360,17.0,22.0,61,0.00,,,0.00,Weather View 32 v70,2013-01-24 13:20:00,
2013-01-24 08:25:00,17.8,6.6,28.33,North,360,14.0,24.0,61,0.00,,,0.00,Weather View 32 v70,2013-01-24 13:25:00,
2013-01-24 08:30:00,17.8,7.0,28.33,North,360,10.0,24.0,62,0.00,,,0.00,Weather View 32 v70,2013-01-24 13:30:00,
2013-01-24 08:35:00,17.9,8.8,28.34,North,360,10.0,24.0,67,0.00,,,0.00,Weather View 32 v70,2013-01-24 13:35:00,
2013-01-24 08:40:00,17.9,9.1,28.35,North,360,12.0,24.0,68,0.00,,,0.00,Weather View 32 v70,2013-01-24 13:40:00,
2013-01-24 08:45:00,17.8,8.4,28.35,North,360,17.0,27.0,66,0.00,,,0.00,Weather View 32 v70,2013-01-24 13:45:00,
2013-01-24 08:50:00,17.9,8.5,28.36,NW,315,9.0,27.0,66,0.00,,,0.00,Weather View 32 v70,2013-01-24 13:50:00,
2013-01-24 08:55:00,18.1,7.6,28.37,North,360,18.0,27.0,63,0.00,,,0.00,Weather View 32 v70,2013-01-24 13:55:00,
2013-01-24 09:00:00,18.1,6.2,28.37,NW,315,20.0,27.0,59,0.00,,,0.00,Weather View 32 v70,2013-01-24 14:00:00,
2013-01-24 09:05:00,17.9,5.2,28.37,NW,315,19.0,27.0,57,0.00,,,0.00,Weather View 32 v70,2013-01-24 14:05:00,
2013-01-24 09:10:00,17.9,5.2,28.37,NW,315,13.0,27.0,57,0.00,,,0.00,Weather View 32 v70,2013-01-24 14:10:00,
2013-01-24 09:15:00,17.9,4.5,28.38,NW,315,15.0,27.0,55,0.00,,,0.00,Weather View 32 v70,2013-01-24 14:15:00,
2013-01-24 09:20:00,17.5,4.1,28.39,NNW,337,10.0,27.0,55,0.00,,,0.00,Weather View 32 v70,2013-01-24 14:20:00,
2013-01-24 09:25:00,17.6,4.2,28.39,NW,315,9.0,27.0,55,0.00,,,0.00,Weather View 32 v70,2013-01-24 14:25:00,
2013-01-24 09:30:00,17.8,4.4,28.39,NNW,337,13.0,27.0,55,0.00,,,0.00,Weather View 32 v70,2013-01-24 14:30:00,
2013-01-24 09:35:00,17.5,4.9,28.39,North,360,10.0,27.0,57,0.00,,,0.00,Weather View 32 v70,2013-01-24 14:35:00,
2013-01-24 09:41:00,16.7,7.7,28.40,North,360,15.0,27.0,67,0.00,,,0.00,Weather View 32 v70,2013-01-24 14:41:00,
2013-01-24 09:46:00,16.9,7.2,28.40,North,360,7.0,26.0,65,0.00,,,0.00,Weather View 32 v70,2013-01-24 14:46:00,
2013-01-24 09:51:00,17.1,8.4,28.41,North,360,9.0,26.0,68,0.00,,,0.00,Weather View 32 v70,2013-01-24 14:51:00,
2013-01-24 09:56:00,17.9,6.7,28.41,North,360,11.0,26.0,61,0.00,,,0.00,Weather View 32 v70,2013-01-24 14:56:00,
2013-01-24 10:01:00,18.4,9.3,28.42,NNE,22,7.0,26.0,67,0.00,,,0.00,Weather View 32 v70,2013-01-24 15:01:00,
2013-01-24 10:06:00,18.9,5.0,28.42,North,360,19.0,26.0,54,0.00,,,0.00,Weather View 32 v70,2013-01-24 15:06:00,
2013-01-24 10:11:00,18.9,5.8,28.42,NNW,337,19.0,26.0,56,0.00,,,0.00,Weather View 32 v70,2013-01-24 15:11:00,
2013-01-24 10:16:00,19.0,4.7,28.42,North,360,13.0,24.0,53,0.00,,,0.00,Weather View 32 v70,2013-01-24 15:16:00,
2013-01-24 10:21:00,18.5,5.4,28.43,North,360,14.0,24.0,56,0.00,,,0.00,Weather View 32 v70,2013-01-24 15:21:00,
2013-01-24 10:26:00,19.2,4.9,28.43,North,360,16.0,24.0,53,0.00,,,0.00,Weather View 32 v70,2013-01-24 15:26:00,
2013-01-24 10:31:00,19.2,4.0,28.43,North,360,15.0,24.0,51,0.00,,,0.00,Weather View 32 v70,2013-01-24 15:31:00,
2013-01-24 10:36:00,18.9,2.9,28.44,NNW,337,9.0,24.0,49,0.00,,,0.00,Weather View 32 v70,2013-01-24 15:36:00,
2013-01-24 10:41:00,19.3,5.0,28.44,North,360,6.0,23.0,53,0.00,,,0.00,Weather View 32 v70,2013-01-24 15:41:00,
2013-01-24 10:46:00,20.4,4.7,28.44,North,360,11.0,23.0,50,0.00,,,0.00,Weather View 32 v70,2013-01-24 15:46:00,
2013-01-24 10:51:00,20.2,3.2,28.44,NNW,337,8.0,23.0,47,0.00,,,0.00,Weather View 32 v70,2013-01-24 15:51:00,
2013-01-24 10:56:00,20.2,3.6,28.44,NNW,337,11.0,23.0,48,0.00,,,0.00,Weather View 32 v70,2013-01-24 15:56:00,
2013-01-24 11:01:00,20.5,5.2,28.45,North,360,11.0,23.0,51,0.00,,,0.00,Weather View 32 v70,2013-01-24 16:01:00,
2013-01-24 11:06:00,20.2,2.7,28.45,North,360,8.0,23.0,46,0.00,,,0.00,Weather View 32 v70,2013-01-24 16:06:00,
2013-01-24 11:11:00,20.5,3.9,28.46,North,360,8.0,23.0,48,0.00,,,0.00,Weather View 32 v70,2013-01-24 16:11:00,
2013-01-24 11:16:00,20.3,3.3,28.46,NW,315,13.0,23.0,47,0.00,,,0.00,Weather View 32 v70,2013-01-24 16:16:00,
2013-01-24 11:21:00,20.1,3.6,28.45,NW,315,17.0,24.0,48,0.00,,,0.00,Weather View 32 v70,2013-01-24 16:21:00,
2013-01-24 11:26:00,20.3,4.2,28.46,WNW,292,13.0,25.0,49,0.00,,,0.00,Weather View 32 v70,2013-01-24 16:26:00,
2013-01-24 11:31:00,20.2,4.5,28.46,North,360,16.0,26.0,50,0.00,,,0.00,Weather View 32 v70,2013-01-24 16:31:00,
2013-01-24 11:36:00,20.5,3.9,28.46,NNW,337,14.0,26.0,48,0.00,,,0.00,Weather View 32 v70,2013-01-24 16:36:00,
2013-01-24 11:41:00,20.5,3.9,28.46,North,360,13.0,26.0,48,0.00,,,0.00,Weather View 32 v70,2013-01-24 16:41:00,
2013-01-24 11:46:00,20.9,4.3,28.46,NW,315,17.0,26.0,48,0.00,,,0.00,Weather View 32 v70,2013-01-24 16:46:00,
2013-01-24 11:51:00,21.2,3.2,28.46,NW,315,17.0,26.0,45,0.00,,,0.00,Weather View 32 v70,2013-01-24 16:51:00,
2013-01-24 11:56:00,20.5,3.5,28.47,North,360,16.0,26.0,47,0.00,,,0.00,Weather View 32 v70,2013-01-24 16:56:00,
2013-01-24 12:01:00,20.5,4.8,28.46,NW,315,15.0,29.0,50,0.00,,,0.00,Weather View 32 v70,2013-01-24 17:01:00,
2013-01-24 12:06:00,20.4,4.3,28.46,NW,315,16.0,29.0,49,0.00,,,0.00,Weather View 32 v70,2013-01-24 17:06:00,
2013-01-24 12:11:00,20.5,4.4,28.47,NW,315,12.0,29.0,49,0.00,,,0.00,Weather View 32 v70,2013-01-24 17:11:00,
2013-01-24 12:17:00,20.9,4.7,28.46,North,360,17.0,29.0,49,0.00,,,0.00,Weather View 32 v70,2013-01-24 17:17:00,
2013-01-24 12:22:00,20.8,3.3,28.46,NW,315,15.0,29.0,46,0.00,,,0.00,Weather View 32 v70,2013-01-24 17:22:00,
2013-01-24 12:27:00,20.3,3.7,28.46,North,360,22.0,29.0,48,0.00,,,0.00,Weather View 32 v70,2013-01-24 17:27:00,
2013-01-24 12:32:00,20.3,3.3,28.46,NNW,337,8.0,29.0,47,0.00,,,0.00,Weather View 32 v70,2013-01-24 17:32:00,
2013-01-24 12:37:00,20.8,3.7,28.47,North,360,21.0,29.0,47,0.00,,,0.00,Weather View 32 v70,2013-01-24 17:37:00,
2013-01-24 12:42:00,20.9,3.8,28.46,North,360,8.0,29.0,47,0.00,,,0.00,Weather View 32 v70,2013-01-24 17:42:00,
2013-01-24 12:47:00,20.3,4.6,28.47,North,360,7.0,29.0,50,0.00,,,0.00,Weather View 32 v70,2013-01-24 17:47:00,
2013-01-24 12:52:00,20.4,3.4,28.48,NW,315,7.0,29.0,47,0.00,,,0.00,Weather View 32 v70,2013-01-24 17:52:00,
2013-01-24 12:57:00,20.0,2.5,28.49,NW,315,11.0,29.0,46,0.00,,,0.00,Weather View 32 v70,2013-01-24 17:57:00,
2013-01-24 13:02:00,20.2,2.2,28.48,North,360,9.0,29.0,45,0.00,,,0.00,Weather View 32 v70,2013-01-24 18:02:00,
2013-01-24 13:07:00,20.4,3.4,28.48,North,360,11.0,29.0,47,0.00,,,0.00,Weather View 32 v70,2013-01-24 18:07:00,
2013-01-24 13:12:00,20.9,3.4,28.49,NNE,22,16.0,29.0,46,0.00,,,0.00,Weather View 32 v70,2013-01-24 18:12:00,
2013-01-24 13:17:00,21.3,3.3,28.49,NNE,22,4.0,29.0,45,0.00,,,0.00,Weather View 32 v70,2013-01-24 18:17:00,
2013-01-24 13:22:00,21.6,4.9,28.49,North,360,12.0,29.0,48,0.00,,,0.00,Weather View 32 v70,2013-01-24 18:22:00,
2013-01-24 13:27:00,21.8,4.7,28.48,North,360,10.0,29.0,47,0.00,,,0.00,Weather View 32 v70,2013-01-24 18:27:00,
2013-01-24 13:32:00,21.7,2.1,28.48,NNW,337,11.0,27.0,42,0.00,,,0.00,Weather View 32 v70,2013-01-24 18:32:00,
2013-01-24 13:37:00,22.2,4.1,28.48,North,360,12.0,27.0,45,0.00,,,0.00,Weather View 32 v70,2013-01-24 18:37:00,
2013-01-24 13:42:00,22.8,4.1,28.48,North,360,8.0,25.0,44,0.00,,,0.00,Weather View 32 v70,2013-01-24 18:42:00,
2013-01-24 13:47:00,23.1,4.9,28.48,North,360,12.0,24.0,45,0.00,,,0.00,Weather View 32 v70,2013-01-24 18:47:00,
2013-01-24 13:52:00,23.0,3.3,28.48,NW,315,6.0,24.0,42,0.00,,,0.00,Weather View 32 v70,2013-01-24 18:52:00,
2013-01-24 13:57:00,22.6,3.0,28.48,NNE,22,12.0,24.0,42,0.00,,,0.00,Weather View 32 v70,2013-01-24 18:57:00,
2013-01-24 14:02:00,22.6,3.5,28.48,North,360,10.0,24.0,43,0.00,,,0.00,Weather View 32 v70,2013-01-24 19:02:00,
2013-01-24 14:07:00,22.5,4.8,28.48,NNE,22,13.0,24.0,46,0.00,,,0.00,Weather View 32 v70,2013-01-24 19:07:00,
2013-01-24 14:12:00,22.4,2.8,28.49,North,360,17.0,24.0,42,0.00,,,0.00,Weather View 32 v70,2013-01-24 19:12:00,
2013-01-24 14:17:00,21.8,2.2,28.49,North,360,12.0,24.0,42,0.00,,,0.00,Weather View 32 v70,2013-01-24 19:17:00,
2013-01-24 14:22:00,22.9,2.2,28.49,North,360,12.0,23.0,40,0.00,,,0.00,Weather View 32 v70,2013-01-24 19:22:00,
2013-01-24 14:27:00,22.6,0.2,28.50,North,360,11.0,23.0,37,0.00,,,0.00,Weather View 32 v70,2013-01-24 19:27:00,
2013-01-24 14:32:00,22.3,1.1,28.50,NW,315,7.0,23.0,39,0.00,,,0.00,Weather View 32 v70,2013-01-24 19:32:00,
2013-01-24 14:37:00,21.5,0.4,28.50,North,360,14.0,23.0,39,0.00,,,0.00,Weather View 32 v70,2013-01-24 19:37:00,
2013-01-24 14:42:00,21.3,0.2,28.51,North,360,12.0,22.0,39,0.00,,,0.00,Weather View 32 v70,2013-01-24 19:42:00,
2013-01-24 14:47:00,21.8,-0.5,28.50,NW,315,10.0,22.0,37,0.00,,,0.00,Weather View 32 v70,2013-01-24 19:47:00,
2013-01-24 14:52:00,22.5,0.1,28.50,North,360,9.0,22.0,37,0.00,,,0.00,Weather View 32 v70,2013-01-24 19:52:00,
2013-01-24 14:57:00,22.6,0.8,28.49,North,360,18.0,22.0,38,0.00,,,0.00,Weather View 32 v70,2013-01-24 19:57:00,
2013-01-24 15:02:00,22.7,1.4,28.50,North,360,12.0,22.0,39,0.00,,,0.00,Weather View 32 v70,2013-01-24 20:02:00,
2013-01-24 15:07:00,22.8,1.0,28.50,North,360,15.0,22.0,38,0.00,,,0.00,Weather View 32 v70,2013-01-24 20:07:00,
2013-01-24 15:13:00,22.8,3.1,28.51,North,360,21.0,22.0,42,0.00,,,0.00,Weather View 32 v70,2013-01-24 20:13:00,
2013-01-24 15:18:00,22.5,0.7,28.52,North,360,9.0,22.0,38,0.00,,,0.00,Weather View 32 v70,2013-01-24 20:18:00,
2013-01-24 15:23:00,22.5,3.4,28.52,North,360,9.0,22.0,43,0.00,,,0.00,Weather View 32 v70,2013-01-24 20:23:00,
2013-01-24 15:28:00,22.2,-0.7,28.52,North,360,14.0,22.0,36,0.00,,,0.00,Weather View 32 v70,2013-01-24 20:28:00,
2013-01-24 15:33:00,22.1,0.9,28.52,North,360,13.0,22.0,39,0.00,,,0.00,Weather View 32 v70,2013-01-24 20:33:00,
2013-01-24 15:38:00,22.1,1.5,28.52,North,360,17.0,22.0,40,0.00,,,0.00,Weather View 32 v70,2013-01-24 20:38:00,
2013-01-24 15:43:00,21.9,1.3,28.52,NW,315,11.0,22.0,40,0.00,,,0.00,Weather View 32 v70,2013-01-24 20:43:00,
2013-01-24 15:48:00,21.9,1.3,28.52,NW,315,17.0,22.0,40,0.00,,,0.00,Weather View 32 v70,2013-01-24 20:48:00,
2013-01-24 15:53:00,21.4,1.3,28.52,NW,315,15.0,21.0,41,0.00,,,0.00,Weather View 32 v70,2013-01-24 20:53:00,
2013-01-24 15:58:00,21.5,0.9,28.52,North,360,7.0,21.0,40,0.00,,,0.00,Weather View 32 v70,2013-01-24 20:58:00,
2013-01-24 16:03:00,21.8,1.7,28.53,NE,45,6.0,21.0,41,0.00,,,0.00,Weather View 32 v70,2013-01-24 21:03:00,
2013-01-24 16:08:00,22.0,1.9,28.54,North,360,13.0,21.0,41,0.00,,,0.00,Weather View 32 v70,2013-01-24 21:08:00,
2013-01-24 16:13:00,21.8,2.2,28.53,WNW,292,16.0,21.0,42,0.00,,,0.00,Weather View 32 v70,2013-01-24 21:13:00,
2013-01-24 16:18:00,21.3,1.8,28.55,NW,315,9.0,21.0,42,0.00,,,0.00,Weather View 32 v70,2013-01-24 21:18:00,
2013-01-24 16:23:00,21.1,1.6,28.55,WNW,292,7.0,21.0,42,0.00,,,0.00,Weather View 32 v70,2013-01-24 21:23:00,
2013-01-24 16:28:00,20.9,1.9,28.55,West,270,9.0,21.0,43,0.00,,,0.00,Weather View 32 v70,2013-01-24 21:28:00,
2013-01-24 16:33:00,20.9,2.9,28.55,NW,315,9.0,21.0,45,0.00,,,0.00,Weather View 32 v70,2013-01-24 21:33:00,
2013-01-24 16:38:00,21.0,2.5,28.55,NNW,337,6.0,21.0,44,0.00,,,0.00,Weather View 32 v70,2013-01-24 21:38:00,
2013-01-24 16:43:00,20.9,1.9,28.55,NW,315,7.0,21.0,43,0.00,,,0.00,Weather View 32 v70,2013-01-24 21:43:00,
2013-01-24 16:48:00,20.8,1.8,28.55,NW,315,9.0,21.0,43,0.00,,,0.00,Weather View 32 v70,2013-01-24 21:48:00,
2013-01-24 16:53:00,20.3,0.9,28.55,NW,315,11.0,18.0,42,0.00,,,0.00,Weather View 32 v70,2013-01-24 21:53:00,
2013-01-24 16:58:00,19.8,0.9,28.55,NNW,337,14.0,18.0,43,0.00,,,0.00,Weather View 32 v70,2013-01-24 21:58:00,
2013-01-24 17:03:00,19.3,0.5,28.55,NW,315,11.0,18.0,43,0.00,,,0.00,Weather View 32 v70,2013-01-24 22:03:00,
2013-01-24 17:08:00,18.9,0.6,28.55,NW,315,11.0,18.0,44,0.00,,,0.00,Weather View 32 v70,2013-01-24 22:08:00,
2013-01-24 17:13:00,18.8,1.4,28.55,NNW,337,12.0,18.0,46,0.00,,,0.00,Weather View 32 v70,2013-01-24 22:13:00,
2013-01-24 17:18:00,18.7,0.9,28.55,NNW,337,7.0,18.0,45,0.00,,,0.00,Weather View 32 v70,2013-01-24 22:18:00,
2013-01-24 17:23:00,18.5,1.2,28.56,North,360,12.0,18.0,46,0.00,,,0.00,Weather View 32 v70,2013-01-24 22:23:00,
2013-01-24 17:28:00,18.3,1.9,28.57,North,360,6.0,18.0,48,0.00,,,0.00,Weather View 32 v70,2013-01-24 22:28:00,
2013-01-24 17:33:00,17.9,0.6,28.56,NW,315,7.0,17.0,46,0.00,,,0.00,Weather View 32 v70,2013-01-24 22:33:00,
2013-01-24 17:38:00,17.9,0.1,28.55,NNW,337,9.0,17.0,45,0.00,,,0.00,Weather View 32 v70,2013-01-24 22:38:00,
2013-01-24 17:44:00,17.8,1.0,28.57,North,360,8.0,17.0,47,0.00,,,0.00,Weather View 32 v70,2013-01-24 22:44:00,
2013-01-24 17:49:00,17.6,0.8,28.57,NW,315,4.0,17.0,47,0.00,,,0.00,Weather View 32 v70,2013-01-24 22:49:00,
2013-01-24 17:54:00,17.2,0.9,28.57,NW,315,9.0,17.0,48,0.00,,,0.00,Weather View 32 v70,2013-01-24 22:54:00,
2013-01-24 17:59:00,17.2,0.9,28.57,NW,315,6.0,17.0,48,0.00,,,0.00,Weather View 32 v70,2013-01-24 22:59:00,
2013-01-24 18:04:00,17.3,1.0,28.57,North,360,3.0,17.0,48,0.00,,,0.00,Weather View 32 v70,2013-01-24 23:04:00,
2013-01-24 18:09:00,16.9,0.6,28.58,North,360,0.0,17.0,48,0.00,,,0.00,Weather View 32 v70,2013-01-24 23:09:00,
2013-01-24 18:14:00,16.5,-0.2,28.57,NW,315,3.0,17.0,47,0.00,,,0.00,Weather View 32 v70,2013-01-24 23:14:00,
2013-01-24 18:19:00,16.3,0.5,28.57,NW,315,7.0,17.0,49,0.00,,,0.00,Weather View 32 v70,2013-01-24 23:19:00,
2013-01-24 18:24:00,16.6,1.6,28.57,North,360,2.0,17.0,51,0.00,,,0.00,Weather View 32 v70,2013-01-24 23:24:00,
2013-01-24 18:29:00,16.2,0.8,28.58,North,360,2.0,17.0,50,0.00,,,0.00,Weather View 32 v70,2013-01-24 23:29:00,
2013-01-24 18:34:00,15.7,0.4,28.59,North,360,1.0,17.0,50,0.00,,,0.00,Weather View 32 v70,2013-01-24 23:34:00,
2013-01-24 18:39:00,15.4,0.5,28.60,North,360,0.0,14.0,51,0.00,,,0.00,Weather View 32 v70,2013-01-24 23:39:00,
2013-01-24 18:44:00,15.3,0.4,28.60,North,360,2.0,11.0,51,0.00,,,0.00,Weather View 32 v70,2013-01-24 23:44:00,
2013-01-24 18:49:00,15.1,0.2,28.59,North,360,2.0,11.0,51,0.00,,,0.00,Weather View 32 v70,2013-01-24 23:49:00,
2013-01-24 18:54:00,14.9,1.7,28.59,North,360,2.0,11.0,55,0.00,,,0.00,Weather View 32 v70,2013-01-24 23:54:00,
2013-01-24 18:59:00,14.4,1.2,28.60,North,360,0.0,11.0,55,0.00,,,0.00,Weather View 32 v70,2013-01-24 23:59:00,
2013-01-24 19:04:00,13.7,0.1,28.60,North,360,0.0,10.0,54,0.00,,,0.00,Weather View 32 v70,2013-01-25 00:04:00,
2013-01-24 19:09:00,13.4,0.2,28.59,North,360,2.0,10.0,55,0.00,,,0.00,Weather View 32 v70,2013-01-25 00:09:00,
2013-01-24 19:14:00,13.9,1.1,28.60,North,360,4.0,10.0,56,0.00,,,0.00,Weather View 32 v70,2013-01-25 00:14:00,
2013-01-24 19:19:00,13.8,2.5,28.60,North,360,2.0,10.0,60,0.00,,,0.00,Weather View 32 v70,2013-01-25 00:19:00,
2013-01-24 19:24:00,13.8,2.5,28.61,North,360,2.0,6.0,60,0.00,,,0.00,Weather View 32 v70,2013-01-25 00:24:00,
2013-01-24 19:29:00,14.1,1.7,28.60,North,360,4.0,6.0,57,0.00,,,0.00,Weather View 32 v70,2013-01-25 00:29:00,
2013-01-24 19:34:00,14.3,1.5,28.61,North,360,4.0,6.0,56,0.00,,,0.00,Weather View 32 v70,2013-01-25 00:34:00,
2013-01-24 19:39:00,14.6,1.0,28.61,NNW,337,2.0,6.0,54,0.00,,,0.00,Weather View 32 v70,2013-01-25 00:39:00,
2013-01-24 19:44:00,15.2,1.5,28.61,North,360,4.0,7.0,54,0.00,,,0.00,Weather View 32 v70,2013-01-25 00:44:00,
2013-01-24 19:49:00,15.4,0.5,28.61,North,360,2.0,7.0,51,0.00,,,0.00,Weather View 32 v70,2013-01-25 00:49:00,
2013-01-24 19:54:00,15.4,1.3,28.61,North,360,2.0,7.0,53,0.00,,,0.00,Weather View 32 v70,2013-01-25 00:54:00,
2013-01-24 19:59:00,15.1,1.0,28.61,North,360,0.0,7.0,53,0.00,,,0.00,Weather View 32 v70,2013-01-25 00:59:00,
2013-01-24 20:04:00,14.7,1.1,28.61,North,360,0.0,7.0,54,0.00,,,0.00,Weather View 32 v70,2013-01-25 01:04:00,
2013-01-24 20:09:00,14.4,0.4,28.60,North,360,1.0,7.0,53,0.00,,,0.00,Weather View 32 v70,2013-01-25 01:09:00,
2013-01-24 20:14:00,13.9,-0.1,28.61,North,360,2.0,7.0,53,0.00,,,0.00,Weather View 32 v70,2013-01-25 01:14:00,
2013-01-24 20:19:00,13.7,0.5,28.60,North,360,2.0,7.0,55,0.00,,,0.00,Weather View 32 v70,2013-01-25 01:19:00,
2013-01-24 20:24:00,13.5,2.2,28.61,NE,45,1.0,7.0,60,0.00,,,0.00,Weather View 32 v70,2013-01-25 01:24:00,
2013-01-24 20:29:00,13.6,0.4,28.61,ENE,67,1.0,7.0,55,0.00,,,0.00,Weather View 32 v70,2013-01-25 01:29:00,
2013-01-24 20:34:00,13.6,1.2,28.60,ENE,67,0.0,7.0,57,0.00,,,0.00,Weather View 32 v70,2013-01-25 01:34:00,
2013-01-24 20:39:00,13.9,0.7,28.61,SE,135,2.0,7.0,55,0.00,,,0.00,Weather View 32 v70,2013-01-25 01:39:00,
2013-01-24 20:45:00,13.6,1.9,28.60,SW,225,0.0,6.0,59,0.00,,,0.00,Weather View 32 v70,2013-01-25 01:45:00,
2013-01-24 20:50:00,13.3,0.5,28.60,SW,225,0.0,4.0,56,0.00,,,0.00,Weather View 32 v70,2013-01-25 01:50:00,
2013-01-24 20:55:00,13.4,0.2,28.60,SW,225,0.0,3.0,55,0.00,,,0.00,Weather View 32 v70,2013-01-25 01:55:00,
2013-01-24 21:00:00,13.4,0.6,28.60,West,270,0.0,3.0,56,0.00,,,0.00,Weather View 32 v70,2013-01-25 02:00:00,
2013-01-24 21:05:00,13.5,1.5,28.60,NW,315,0.0,3.0,58,0.00,,,0.00,Weather View 32 v70,2013-01-25 02:05:00,
2013-01-24 21:10:00,13.4,1.4,28.60,North,360,0.0,3.0,58,0.00,,,0.00,Weather View 32 v70,2013-01-25 02:10:00,
2013-01-24 21:15:00,12.9,2.3,28.60,North,360,1.0,3.0,62,0.00,,,0.00,Weather View 32 v70,2013-01-25 02:15:00,
2013-01-24 21:20:00,12.2,2.4,28.60,North,360,0.0,3.0,64,0.00,,,0.00,Weather View 32 v70,2013-01-25 02:20:00,
2013-01-24 21:25:00,11.8,2.6,28.60,SSE,157,2.0,3.0,66,0.00,,,0.00,Weather View 32 v70,2013-01-25 02:25:00,
2013-01-24 21:30:00,12.4,2.9,28.60,SSE,157,1.0,5.0,65,0.00,,,0.00,Weather View 32 v70,2013-01-25 02:30:00,
2013-01-24 21:35:00,12.6,1.7,28.60,SSE,157,1.0,5.0,61,0.00,,,0.00,Weather View 32 v70,2013-01-25 02:35:00,
2013-01-24 21:40:00,12.5,2.3,28.60,West,270,2.0,5.0,63,0.00,,,0.00,Weather View 32 v70,2013-01-25 02:40:00,
2013-01-24 21:45:00,11.9,2.4,28.60,West,270,0.0,5.0,65,0.00,,,0.00,Weather View 32 v70,2013-01-25 02:45:00,
2013-01-24 21:50:00,11.3,3.1,28.60,NW,315,1.0,5.0,69,0.00,,,0.00,Weather View 32 v70,2013-01-25 02:50:00,
2013-01-24 21:55:00,10.7,3.2,28.60,NW,315,0.0,5.0,71,0.00,,,0.00,Weather View 32 v70,2013-01-25 02:55:00,
2013-01-24 22:00:00,10.3,3.1,28.60,SW,225,1.0,5.0,72,0.00,,,0.00,Weather View 32 v70,2013-01-25 03:00:00,
2013-01-24 22:05:00,10.6,3.7,28.61,SW,225,1.0,5.0,73,0.00,,,0.00,Weather View 32 v70,2013-01-25 03:05:00,
2013-01-24 22:10:00,10.4,3.5,28.60,West,270,3.0,5.0,73,0.00,,,0.00,Weather View 32 v70,2013-01-25 03:10:00,
2013-01-24 22:15:00,10.3,2.8,28.61,WNW,292,0.0,5.0,71,0.00,,,0.00,Weather View 32 v70,2013-01-25 03:15:00,
2013-01-24 22:20:00,10.1,2.9,28.62,WNW,292,2.0,5.0,72,0.00,,,0.00,Weather View 32 v70,2013-01-25 03:20:00,
2013-01-24 22:25:00,9.9,3.0,28.61,WNW,292,2.0,5.0,73,0.00,,,0.00,Weather View 32 v70,2013-01-25 03:25:00,
2013-01-24 22:30:00,9.9,2.4,28.61,WNW,292,2.0,3.0,71,0.00,,,0.00,Weather View 32 v70,2013-01-25 03:30:00,
2013-01-24 22:35:00,9.8,3.2,28.61,WNW,292,1.0,3.0,74,0.00,,,0.00,Weather View 32 v70,2013-01-25 03:35:00,
2013-01-24 22:40:00,9.8,2.6,28.60,WNW,292,0.0,3.0,72,0.00,,,0.00,Weather View 32 v70,2013-01-25 03:40:00,
2013-01-24 22:45:00,9.6,2.1,28.61,WNW,292,2.0,3.0,71,0.00,,,0.00,Weather View 32 v70,2013-01-25 03:45:00,
2013-01-24 22:50:00,9.6,2.7,28.60,WNW,292,0.0,3.0,73,0.00,,,0.00,Weather View 32 v70,2013-01-25 03:50:00,
2013-01-24 22:55:00,9.3,2.4,28.61,WNW,292,0.0,3.0,73,0.00,,,0.00,Weather View 32 v70,2013-01-25 03:55:00,
2013-01-24 23:00:00,8.9,2.3,28.61,WNW,292,0.0,3.0,74,0.00,,,0.00,Weather View 32 v70,2013-01-25 04:00:00,
2013-01-24 23:05:00,9.2,1.1,28.61,WNW,292,0.0,3.0,69,0.00,,,0.00,Weather View 32 v70,2013-01-25 04:05:00,
2013-01-24 23:10:00,9.6,0.9,28.61,WNW,292,0.0,3.0,67,0.00,,,0.00,Weather View 32 v70,2013-01-25 04:10:00,
2013-01-24 23:16:00,9.6,2.1,28.61,WNW,292,2.0,3.0,71,0.00,,,0.00,Weather View 32 v70,2013-01-25 04:16:00,
2013-01-24 23:21:00,9.2,2.0,28.61,WNW,292,1.0,3.0,72,0.00,,,0.00,Weather View 32 v70,2013-01-25 04:21:00,
2013-01-24 23:26:00,8.7,2.4,28.61,WNW,292,1.0,3.0,75,0.00,,,0.00,Weather View 32 v70,2013-01-25 04:26:00,
2013-01-24 23:31:00,8.7,2.1,28.61,WNW,292,0.0,3.0,74,0.00,,,0.00,Weather View 32 v70,2013-01-25 04:31:00,
2013-01-24 23:36:00,8.9,1.4,28.61,WNW,292,0.0,3.0,71,0.00,,,0.00,Weather View 32 v70,2013-01-25 04:36:00,
2013-01-24 23:41:00,9.3,1.8,28.61,WNW,292,1.0,3.0,71,0.00,,,0.00,Weather View 32 v70,2013-01-25 04:41:00,
2013-01-24 23:46:00,9.2,2.3,28.60,WNW,292,1.0,3.0,73,0.00,,,0.00,Weather View 32 v70,2013-01-25 04:46:00,
2013-01-24 23:51:00,8.9,2.3,28.61,WNW,292,0.0,3.0,74,0.00,,,0.00,Weather View 32 v70,2013-01-25 04:51:00,
2013-01-24 23:56:00,8.8,2.2,28.61,NW,315,2.0,3.0,74,0.00,,,0.00,Weather View 32 v70,2013-01-25 04:56:00,